sensor_id;sensor_type;location;lat;lon;timestamp;temperature;humidity
9450;DHT22;4763;48.370;10.874;2023-12-20T00:00:01;6.50;99.90
9450;DHT22;4763;48.370;10.874;2023-12-20T00:02:28;6.60;99.90
9450;DHT22;4763;48.370;10.874;2023-12-20T00:05:00;6.40;99.90
9450;DHT22;4763;48.370;10.874;2023-12-20T00:07:34;6.50;99.90
9450;DHT22;4763;48.370;10.874;2023-12-20T00:10:01;6.50;99.90
9450;DHT22;4763;48.370;10.874;2023-12-20T00:12:28;6.60;99.90
9450;DHT22;4763;48.370;10.874;2023-12-20T00:14:55;6.60;99.90
9450;DHT22;4763;48.370;10.874;2023-12-20T00:17:21;6.60;99.90
9450;DHT22;4763;48.370;10.874;2023-12-20T00:19:50;6.60;99.90
9450;DHT22;4763;48.370;10.874;2023-12-20T00:22:24;6.60;99.90
9450;DHT22;4763;48.370;10.874;2023-12-20T00:24:51;6.40;99.90
9450;DHT22;4763;48.370;10.874;2023-12-20T00:27:20;6.50;99.90
9450;DHT22;4763;48.370;10.874;2023-12-20T00:29:47;6.50;99.90
9450;DHT22;4763;48.370;10.874;2023-12-20T00:32:15;6.50;99.90
9450;DHT22;4763;48.370;10.874;2023-12-20T00:34:42;6.60;99.90
9450;DHT22;4763;48.370;10.874;2023-12-20T00:37:09;6.60;99.90
9450;DHT22;4763;48.370;10.874;2023-12-20T00:39:41;6.60;99.90
9450;DHT22;4763;48.370;10.874;2023-12-20T00:42:08;6.60;99.90
9450;DHT22;4763;48.370;10.874;2023-12-20T00:44:35;6.60;99.90
9450;DHT22;4763;48.370;10.874;2023-12-20T00:47:02;6.50;99.90
9450;DHT22;4763;48.370;10.874;2023-12-20T00:49:29;6.50;99.90
9450;DHT22;4763;48.370;10.874;2023-12-20T00:51:56;6.50;99.90
9450;DHT22;4763;48.370;10.874;2023-12-20T00:54:23;6.40;99.90
9450;DHT22;4763;48.370;10.874;2023-12-20T00:56:52;6.40;99.90
9450;DHT22;4763;48.370;10.874;2023-12-20T00:59:19;6.50;99.90
9450;DHT22;4763;48.370;10.874;2023-12-20T01:01:46;6.40;99.90
9450;DHT22;4763;48.370;10.874;2023-12-20T01:04:18;6.40;99.90
9450;DHT22;4763;48.370;10.874;2023-12-20T01:06:45;6.30;99.90
9450;DHT22;4763;48.370;10.874;2023-12-20T01:09:12;6.30;99.90
9450;DHT22;4763;48.370;10.874;2023-12-20T01:11:39;6.30;99.90
9450;DHT22;4763;48.370;10.874;2023-12-20T01:14:08;6.30;99.90
9450;DHT22;4763;48.370;10.874;2023-12-20T01:16:35;6.20;99.90
9450;DHT22;4763;48.370;10.874;2023-12-20T01:19:12;6.10;99.90
9450;DHT22;4763;48.370;10.874;2023-12-20T01:21:44;6.10;99.90
9450;DHT22;4763;48.370;10.874;2023-12-20T01:24:11;6.10;99.90
9450;DHT22;4763;48.370;10.874;2023-12-20T01:26:45;6.10;99.90
9450;DHT22;4763;48.370;10.874;2023-12-20T01:29:13;6.10;99.90
9450;DHT22;4763;48.370;10.874;2023-12-20T01:31:43;6.10;99.90
9450;DHT22;4763;48.370;10.874;2023-12-20T01:34:11;6.10;99.90
9450;DHT22;4763;48.370;10.874;2023-12-20T01:40:16;6.20;99.90
9450;DHT22;4763;48.370;10.874;2023-12-20T01:42:58;6.10;99.90
9450;DHT22;4763;48.370;10.874;2023-12-20T01:45:30;6.00;99.90
9450;DHT22;4763;48.370;10.874;2023-12-20T01:47:59;6.00;99.90
9450;DHT22;4763;48.370;10.874;2023-12-20T01:50:30;6.00;99.90
9450;DHT22;4763;48.370;10.874;2023-12-20T01:52:59;6.00;99.90
9450;DHT22;4763;48.370;10.874;2023-12-20T01:55:29;5.90;99.90
9450;DHT22;4763;48.370;10.874;2023-12-20T01:57:58;5.90;99.90
9450;DHT22;4763;48.370;10.874;2023-12-20T02:00:29;6.00;99.90
9450;DHT22;4763;48.370;10.874;2023-12-20T02:02:57;5.90;99.90
9450;DHT22;4763;48.370;10.874;2023-12-20T02:05:26;5.90;99.90
9450;DHT22;4763;48.370;10.874;2023-12-20T02:07:54;5.90;99.90
9450;DHT22;4763;48.370;10.874;2023-12-20T02:10:21;6.00;99.90
9450;DHT22;4763;48.370;10.874;2023-12-20T02:12:48;6.00;99.90
9450;DHT22;4763;48.370;10.874;2023-12-20T02:15:15;5.90;99.90
9450;DHT22;4763;48.370;10.874;2023-12-20T02:17:44;5.90;99.90
9450;DHT22;4763;48.370;10.874;2023-12-20T02:20:11;5.90;99.90
9450;DHT22;4763;48.370;10.874;2023-12-20T02:22:39;5.90;99.90
9450;DHT22;4763;48.370;10.874;2023-12-20T02:25:06;5.90;99.90
9450;DHT22;4763;48.370;10.874;2023-12-20T02:27:34;5.90;99.90
9450;DHT22;4763;48.370;10.874;2023-12-20T02:30:02;5.90;99.90
9450;DHT22;4763;48.370;10.874;2023-12-20T02:32:29;5.90;99.90
9450;DHT22;4763;48.370;10.874;2023-12-20T02:34:56;5.80;99.90
9450;DHT22;4763;48.370;10.874;2023-12-20T02:37:25;5.80;99.90
9450;DHT22;4763;48.370;10.874;2023-12-20T02:40:05;5.80;99.90
9450;DHT22;4763;48.370;10.874;2023-12-20T02:42:49;5.90;99.90
9450;DHT22;4763;48.370;10.874;2023-12-20T02:45:21;5.70;99.90
9450;DHT22;4763;48.370;10.874;2023-12-20T02:48:06;5.70;99.90
9450;DHT22;4763;48.370;10.874;2023-12-20T02:50:35;5.70;99.90
9450;DHT22;4763;48.370;10.874;2023-12-20T02:53:02;5.60;99.90
9450;DHT22;4763;48.370;10.874;2023-12-20T02:55:34;5.60;99.90
9450;DHT22;4763;48.370;10.874;2023-12-20T04:19:06;4.70;99.90
9450;DHT22;4763;48.370;10.874;2023-12-20T04:21:33;4.70;99.90
9450;DHT22;4763;48.370;10.874;2023-12-20T04:24:00;4.70;99.90
9450;DHT22;4763;48.370;10.874;2023-12-20T05:55:27;4.80;99.90
9450;DHT22;4763;48.370;10.874;2023-12-20T05:57:54;4.90;99.90
9450;DHT22;4763;48.370;10.874;2023-12-20T06:00:21;4.80;99.90
9450;DHT22;4763;48.370;10.874;2023-12-20T06:02:49;4.80;99.90
9450;DHT22;4763;48.370;10.874;2023-12-20T06:05:16;4.80;99.90
9450;DHT22;4763;48.370;10.874;2023-12-20T06:07:48;4.70;99.90
9450;DHT22;4763;48.370;10.874;2023-12-20T06:10:20;4.60;99.90
9450;DHT22;4763;48.370;10.874;2023-12-20T06:12:49;4.70;99.90
9450;DHT22;4763;48.370;10.874;2023-12-20T06:15:17;4.60;99.90
9450;DHT22;4763;48.370;10.874;2023-12-20T06:17:44;4.70;99.90
9450;DHT22;4763;48.370;10.874;2023-12-20T06:20:12;4.70;99.90
9450;DHT22;4763;48.370;10.874;2023-12-20T06:22:39;4.70;99.90
9450;DHT22;4763;48.370;10.874;2023-12-20T06:25:07;4.60;99.90
9450;DHT22;4763;48.370;10.874;2023-12-20T06:27:34;4.70;99.90
9450;DHT22;4763;48.370;10.874;2023-12-20T06:30:03;4.60;99.90
9450;DHT22;4763;48.370;10.874;2023-12-20T06:32:30;4.60;99.90
9450;DHT22;4763;48.370;10.874;2023-12-20T06:34:57;4.60;99.90
9450;DHT22;4763;48.370;10.874;2023-12-20T06:37:24;4.50;99.90
9450;DHT22;4763;48.370;10.874;2023-12-20T06:39:51;4.50;99.90
9450;DHT22;4763;48.370;10.874;2023-12-20T06:42:17;4.50;99.90
9450;DHT22;4763;48.370;10.874;2023-12-20T06:44:44;4.40;99.90
9450;DHT22;4763;48.370;10.874;2023-12-20T06:47:12;4.40;99.90
9450;DHT22;4763;48.370;10.874;2023-12-20T06:49:40;4.40;99.90
9450;DHT22;4763;48.370;10.874;2023-12-20T06:52:06;4.40;99.90
9450;DHT22;4763;48.370;10.874;2023-12-20T06:54:33;4.40;99.90
9450;DHT22;4763;48.370;10.874;2023-12-20T06:57:02;4.40;99.90
9450;DHT22;4763;48.370;10.874;2023-12-20T06:59:31;4.40;99.90
9450;DHT22;4763;48.370;10.874;2023-12-20T07:01:58;4.40;99.90
9450;DHT22;4763;48.370;10.874;2023-12-20T07:04:26;4.40;99.90
9450;DHT22;4763;48.370;10.874;2023-12-20T07:06:53;4.30;99.90
9450;DHT22;4763;48.370;10.874;2023-12-20T07:09:22;4.30;99.90
9450;DHT22;4763;48.370;10.874;2023-12-20T07:11:49;4.30;99.90
9450;DHT22;4763;48.370;10.874;2023-12-20T07:14:16;4.30;99.90
9450;DHT22;4763;48.370;10.874;2023-12-20T07:16:42;4.30;99.90
9450;DHT22;4763;48.370;10.874;2023-12-20T09:23:52;5.10;99.90
9450;DHT22;4763;48.370;10.874;2023-12-20T09:26:19;5.10;99.90
9450;DHT22;4763;48.370;10.874;2023-12-20T09:28:46;5.20;99.90
9450;DHT22;4763;48.370;10.874;2023-12-20T09:31:13;5.20;99.90
9450;DHT22;4763;48.370;10.874;2023-12-20T09:33:40;5.30;99.90
9450;DHT22;4763;48.370;10.874;2023-12-20T09:36:07;5.30;99.90
9450;DHT22;4763;48.370;10.874;2023-12-20T09:38:33;5.30;99.90
9450;DHT22;4763;48.370;10.874;2023-12-20T09:41:02;5.40;99.90
9450;DHT22;4763;48.370;10.874;2023-12-20T09:43:31;5.40;99.90
9450;DHT22;4763;48.370;10.874;2023-12-20T09:58:25;5.60;99.90
9450;DHT22;4763;48.370;10.874;2023-12-20T10:00:53;5.60;99.90
9450;DHT22;4763;48.370;10.874;2023-12-20T10:03:24;5.60;99.90
9450;DHT22;4763;48.370;10.874;2023-12-20T10:05:52;5.60;99.90
9450;DHT22;4763;48.370;10.874;2023-12-20T10:08:21;5.70;99.90
9450;DHT22;4763;48.370;10.874;2023-12-20T10:10:48;5.60;99.90
9450;DHT22;4763;48.370;10.874;2023-12-20T10:13:15;5.70;99.90
9450;DHT22;4763;48.370;10.874;2023-12-20T14:16:12;5.30;99.90
9450;DHT22;4763;48.370;10.874;2023-12-20T14:18:41;5.20;99.90
9450;DHT22;4763;48.370;10.874;2023-12-20T14:21:08;5.20;99.90
9450;DHT22;4763;48.370;10.874;2023-12-20T14:23:34;5.20;99.90
9450;DHT22;4763;48.370;10.874;2023-12-20T17:04:13;4.20;99.90
9450;DHT22;4763;48.370;10.874;2023-12-20T17:45:47;4.10;99.90
9450;DHT22;4763;48.370;10.874;2023-12-20T17:48:21;4.20;99.90
9450;DHT22;4763;48.370;10.874;2023-12-20T17:51:00;4.10;99.90
9450;DHT22;4763;48.370;10.874;2023-12-20T17:53:27;4.10;99.90
